SDM340 UNNT-UNKL
Flight info
| Callsign | SDM340 |
|---|---|
| Flight time | N/A |
| Altitude | 33000 |
| Route | OGATI A308 RISPA A366 KESED A309 ROTLI A300 RANET |
| Aircraft | B744/H-S/L |
Departure
| Time | 2026-04-30 14:37 |
|---|---|
| Airport | Novosibirsk Tolmachevo Airport (UNNT) |
Arrival
| Time | N/A |
|---|---|
| Airport | Krasnoyarsk International Airport (UNKL) |
| Time | Latitude | Longitude | Altitude | Speed | Heading |
|---|---|---|---|---|---|
| 2026-04-30 14:01 | 55.00930 | 82.66219 | 360 ft | 0 kts | 172° |
| 2026-04-30 14:06 | 55.00931 | 82.66218 | 360 ft | 0 kts | 172° |
| 2026-04-30 14:13 | 55.00940 | 82.66218 | 360 ft | 2 kts | 191° |
| 2026-04-30 14:13 | 55.00955 | 82.66224 | 360 ft | 2 kts | 192° |
| 2026-04-30 14:14 | 55.00970 | 82.66228 | 360 ft | 2 kts | 188° |
| 2026-04-30 14:14 | 55.00984 | 82.66232 | 359 ft | 2 kts | 188° |
| 2026-04-30 14:14 | 55.00999 | 82.66235 | 359 ft | 2 kts | 189° |
| 2026-04-30 14:14 | 55.01014 | 82.66239 | 359 ft | 2 kts | 189° |
| 2026-04-30 14:15 | 55.01029 | 82.66243 | 359 ft | 2 kts | 188° |
| 2026-04-30 14:15 | 55.01044 | 82.66247 | 359 ft | 2 kts | 188° |
| 2026-04-30 14:15 | 55.01058 | 82.66251 | 359 ft | 1 kts | 188° |
| 2026-04-30 14:15 | 55.01065 | 82.66252 | 359 ft | 1 kts | 173° |
| 2026-04-30 14:16 | 55.01068 | 82.66252 | 359 ft | 0 kts | 172° |
| 2026-04-30 14:29 | 55.01066 | 82.66252 | 359 ft | 1 kts | 172° |
| 2026-04-30 14:30 | 55.01048 | 82.66502 | 358 ft | 12 kts | 70° |
| 2026-04-30 14:31 | 55.01089 | 82.66873 | 357 ft | 18 kts | 114° |
| 2026-04-30 14:31 | 55.01107 | 82.67302 | 362 ft | 16 kts | 86° |
| 2026-04-30 14:31 | 55.01138 | 82.67472 | 362 ft | 14 kts | 38° |
| 2026-04-30 14:32 | 55.01319 | 82.67666 | 359 ft | 12 kts | 31° |
| 2026-04-30 14:32 | 55.01342 | 82.67690 | 359 ft | 0 kts | 31° |
| 2026-04-30 14:34 | 55.01344 | 82.67693 | 359 ft | 0 kts | 30° |
| 2026-04-30 14:34 | 55.01358 | 82.67706 | 359 ft | 8 kts | 30° |
| 2026-04-30 14:35 | 55.01479 | 82.67697 | 359 ft | 7 kts | 275° |
| 2026-04-30 14:35 | 55.01477 | 82.67657 | 359 ft | 0 kts | 261° |
| 2026-04-30 14:36 | 55.01472 | 82.67603 | 359 ft | 19 kts | 262° |
| 2026-04-30 14:36 | 55.01418 | 82.67024 | 359 ft | 79 kts | 257° |
| 2026-04-30 14:36 | 55.01294 | 82.65646 | 357 ft | 149 kts | 261° |
| 2026-04-30 14:36 | 55.01102 | 82.63525 | 471 ft | 195 kts | 259° |
| 2026-04-30 14:37 | 55.00894 | 82.61076 | 876 ft | 213 kts | 260° |
| 2026-04-30 14:37 | 55.00681 | 82.58666 | 1511 ft | 195 kts | 259° |
| 2026-04-30 14:37 | 55.00494 | 82.56351 | 1808 ft | 196 kts | 270° |
| 2026-04-30 14:37 | 55.00816 | 82.54029 | 2027 ft | 202 kts | 298° |
| 2026-04-30 14:38 | 55.01763 | 82.52184 | 2242 ft | 209 kts | 327° |
| 2026-04-30 14:38 | 55.03117 | 82.51292 | 2444 ft | 214 kts | 354° |
| 2026-04-30 14:38 | 55.04621 | 82.51238 | 2683 ft | 220 kts | 1° |
| 2026-04-30 14:38 | 55.06184 | 82.51250 | 2927 ft | 226 kts | 0° |
| 2026-04-30 14:39 | 55.07747 | 82.51251 | 3252 ft | 228 kts | 1° |
| 2026-04-30 14:39 | 55.09337 | 82.51256 | 3603 ft | 230 kts | 0° |
| 2026-04-30 14:39 | 55.10947 | 82.51321 | 3861 ft | 237 kts | 9° |
| 2026-04-30 14:40 | 55.13689 | 82.54321 | 4551 ft | 240 kts | 59° |
| 2026-04-30 14:40 | 55.14289 | 82.56998 | 4927 ft | 239 kts | 84° |
| 2026-04-30 14:40 | 55.14326 | 82.59881 | 5307 ft | 241 kts | 92° |
| 2026-04-30 14:40 | 55.14346 | 82.62910 | 5512 ft | 256 kts | 88° |
| 2026-04-30 14:41 | 55.14472 | 82.66059 | 5894 ft | 263 kts | 86° |
| 2026-04-30 14:41 | 55.14671 | 82.69217 | 6429 ft | 265 kts | 84° |
| 2026-04-30 14:41 | 55.14935 | 82.72440 | 6955 ft | 267 kts | 82° |
| 2026-04-30 14:41 | 55.15247 | 82.75632 | 7454 ft | 269 kts | 81° |
| 2026-04-30 14:42 | 55.15601 | 82.78841 | 7938 ft | 271 kts | 79° |
| 2026-04-30 14:42 | 55.15987 | 82.82078 | 8408 ft | 274 kts | 79° |
| 2026-04-30 14:42 | 55.16401 | 82.85335 | 8860 ft | 277 kts | 78° |
| 2026-04-30 14:42 | 55.16840 | 82.88622 | 9290 ft | 280 kts | 77° |
| 2026-04-30 14:43 | 55.17302 | 82.91971 | 9689 ft | 285 kts | 77° |
| 2026-04-30 14:43 | 55.17785 | 82.95375 | 10047 ft | 292 kts | 76° |
| 2026-04-30 14:43 | 55.18283 | 82.98820 | 10456 ft | 296 kts | 76° |
| 2026-04-30 14:43 | 55.18798 | 83.02329 | 10882 ft | 300 kts | 76° |
| 2026-04-30 14:44 | 55.19325 | 83.05888 | 11269 ft | 305 kts | 76° |
| 2026-04-30 14:44 | 55.19865 | 83.09506 | 11598 ft | 313 kts | 76° |
| 2026-04-30 14:44 | 55.20429 | 83.13262 | 11839 ft | 325 kts | 75° |
| 2026-04-30 14:44 | 55.21008 | 83.17109 | 12139 ft | 333 kts | 75° |
| 2026-04-30 14:45 | 55.21597 | 83.21014 | 12647 ft | 334 kts | 75° |
| 2026-04-30 14:45 | 55.22194 | 83.24975 | 13120 ft | 337 kts | 75° |
| 2026-04-30 14:45 | 55.22792 | 83.28936 | 13589 ft | 339 kts | 75° |
| 2026-04-30 14:45 | 55.23393 | 83.32928 | 14080 ft | 342 kts | 75° |
| 2026-04-30 14:46 | 55.23998 | 83.36950 | 14576 ft | 344 kts | 75° |
| 2026-04-30 14:46 | 55.24606 | 83.41000 | 15047 ft | 346 kts | 75° |
| 2026-04-30 14:46 | 55.25219 | 83.45086 | 15550 ft | 348 kts | 75° |
| 2026-04-30 14:46 | 55.25631 | 83.47827 | 15847 ft | 350 kts | 75° |
| 2026-04-30 14:47 | 55.26457 | 83.53358 | 16471 ft | 353 kts | 75° |
| 2026-04-30 14:47 | 55.27079 | 83.57530 | 16927 ft | 355 kts | 75° |
| 2026-04-30 14:47 | 55.27697 | 83.61694 | 17380 ft | 357 kts | 75° |
| 2026-04-30 14:47 | 55.28332 | 83.65971 | 17825 ft | 360 kts | 76° |
| 2026-04-30 14:48 | 55.28954 | 83.70167 | 18252 ft | 362 kts | 76° |
| 2026-04-30 14:48 | 55.29586 | 83.74452 | 18686 ft | 365 kts | 76° |
| 2026-04-30 14:48 | 55.30220 | 83.78766 | 19120 ft | 367 kts | 76° |
| 2026-04-30 14:48 | 55.30858 | 83.83114 | 19544 ft | 369 kts | 76° |
| 2026-04-30 14:49 | 55.31497 | 83.87483 | 19966 ft | 371 kts | 76° |
| 2026-04-30 14:49 | 55.32137 | 83.91863 | 20386 ft | 372 kts | 76° |
| 2026-04-30 14:49 | 55.32782 | 83.96289 | 20804 ft | 374 kts | 76° |
| 2026-04-30 14:49 | 55.33425 | 84.00723 | 21198 ft | 376 kts | 76° |
| 2026-04-30 14:50 | 55.34495 | 84.08128 | 21799 ft | 380 kts | 76° |
| 2026-04-30 14:50 | 55.34872 | 84.10770 | 21981 ft | 379 kts | 76° |
| 2026-04-30 14:51 | 55.36175 | 84.19827 | 22575 ft | 388 kts | 76° |
| 2026-04-30 14:51 | 55.36836 | 84.24439 | 22986 ft | 390 kts | 76° |
| 2026-04-30 14:51 | 55.38159 | 84.33733 | 23716 ft | 394 kts | 76° |
| 2026-04-30 14:52 | 55.38818 | 84.38387 | 24080 ft | 396 kts | 76° |
| 2026-04-30 14:52 | 55.40142 | 84.47776 | 24811 ft | 399 kts | 76° |
| 2026-04-30 14:52 | 55.40807 | 84.52512 | 25163 ft | 400 kts | 76° |
| 2026-04-30 14:53 | 55.42141 | 84.62068 | 25777 ft | 405 kts | 76° |
| 2026-04-30 14:53 | 55.42815 | 84.66911 | 26081 ft | 407 kts | 76° |
| 2026-04-30 14:54 | 55.44159 | 84.76606 | 26693 ft | 412 kts | 76° |
| 2026-04-30 14:54 | 55.45514 | 84.86470 | 27279 ft | 416 kts | 76° |
| 2026-04-30 14:55 | 55.46867 | 84.96360 | 27881 ft | 419 kts | 76° |
| 2026-04-30 14:55 | 55.47547 | 85.01372 | 28169 ft | 421 kts | 76° |
| 2026-04-30 14:55 | 55.48908 | 85.11423 | 28689 ft | 425 kts | 76° |
| 2026-04-30 14:56 | 55.50277 | 85.21604 | 29176 ft | 431 kts | 76° |
| 2026-04-30 14:56 | 55.51655 | 85.31933 | 29707 ft | 435 kts | 76° |
| 2026-04-30 14:57 | 55.52341 | 85.37107 | 29980 ft | 436 kts | 75° |
| 2026-04-30 14:57 | 55.53714 | 85.47505 | 30523 ft | 439 kts | 76° |
| 2026-04-30 14:58 | 55.55094 | 85.58052 | 31075 ft | 441 kts | 75° |
| 2026-04-30 14:58 | 55.55778 | 85.63287 | 31326 ft | 443 kts | 75° |
| 2026-04-30 14:58 | 55.57158 | 85.73920 | 31776 ft | 446 kts | 76° |
| 2026-04-30 14:59 | 55.58538 | 85.84629 | 32234 ft | 449 kts | 76° |
| 2026-04-30 15:00 | 55.60602 | 86.00826 | 32940 ft | 453 kts | 76° |
| 2026-04-30 15:00 | 55.61980 | 86.11747 | 33214 ft | 460 kts | 76° |
| 2026-04-30 15:01 | 55.63385 | 86.22944 | 33287 ft | 473 kts | 76° |
| 2026-04-30 15:01 | 55.65546 | 86.40389 | 33310 ft | 498 kts | 76° |
| 2026-04-30 15:02 | 55.67019 | 86.52412 | 33259 ft | 500 kts | 76° |
| 2026-04-30 15:03 | 55.69172 | 86.70172 | 33164 ft | 487 kts | 77° |
| 2026-04-30 15:03 | 55.70587 | 86.81943 | 33195 ft | 489 kts | 77° |
| 2026-04-30 15:04 | 55.71980 | 86.93654 | 33161 ft | 477 kts | 77° |
| 2026-04-30 15:04 | 55.74011 | 87.10895 | 33243 ft | 484 kts | 76° |
| 2026-04-30 15:06 | 55.77417 | 87.40372 | 33185 ft | 481 kts | 76° |
| 2026-04-30 15:07 | 55.80049 | 87.63592 | 33212 ft | 483 kts | 76° |
| 2026-04-30 15:08 | 55.82667 | 87.87097 | 33211 ft | 485 kts | 77° |
| 2026-04-30 15:09 | 55.85852 | 88.16338 | 33212 ft | 483 kts | 77° |
| 2026-04-30 15:10 | 55.88370 | 88.39930 | 33245 ft | 497 kts | 77° |
| 2026-04-30 15:11 | 55.90978 | 88.64863 | 33282 ft | 523 kts | 77° |
| 2026-04-30 15:11 | 55.92289 | 88.77599 | 33227 ft | 523 kts | 78° |
| 2026-04-30 15:13 | 55.95811 | 89.08792 | 33171 ft | 502 kts | 66° |
| 2026-04-30 15:14 | 56.04470 | 89.49468 | 33246 ft | 494 kts | 66° |
| 2026-04-30 15:16 | 56.10095 | 89.76497 | 31985 ft | 439 kts | 67° |
| 2026-04-30 15:17 | 56.14263 | 89.96786 | 28626 ft | 436 kts | 68° |
| 2026-04-30 15:18 | 56.19300 | 90.21523 | 25330 ft | 412 kts | 68° |
| 2026-04-30 15:19 | 56.22159 | 90.35719 | 23351 ft | 400 kts | 68° |